Rubidoux, California
Current Conditions -  °F | °C
As of 2:53 PM on Wednesday 22 Oct 2014 (Local Time) from KRAL Reporting Station
Clear Clear  
Wind Chill: 88°   Ceiling: Unl
Heat Index: 88°   Visibility: 10mi
Dew Point: 35°   Wind: 5mph
Humidity: 15%   Direction: NA
Pressure: 29.88"   Gusts: NA
Location:  33.9957°N, 117.412°W
Report Text: KRAL 222153Z VRB04KT 10SM CLR 31/02 A2988 RMK AO2 SLP104 T03110017
Loading
Personal Weather Stations






























Interactive Weather Map
Tropical Storm Tracking
New forecast layout! Learn more

10-Day Weather Forecast

Advertisements
Track Severe Weather on mobile